sensor_id;sensor_type;location;lat;lon;timestamp;pressure;altitude;pressure_sealevel;temperature;humidity
19789;BME280;10054;59.332;18.244;2022-08-01T00:01:07;100787.78;;;15.91;88.81
19789;BME280;10054;59.332;18.244;2022-08-01T00:03:36;100784.89;;;15.89;89.18
19789;BME280;10054;59.332;18.244;2022-08-01T00:06:05;100786.84;;;15.87;89.43
19789;BME280;10054;59.332;18.244;2022-08-01T00:08:35;100791.44;;;15.85;89.52
19789;BME280;10054;59.332;18.244;2022-08-01T00:11:03;100789.38;;;15.83;89.63
19789;BME280;10054;59.332;18.244;2022-08-01T00:13:32;100787.34;;;15.81;89.67
19789;BME280;10054;59.332;18.244;2022-08-01T00:16:01;100778.63;;;15.78;89.79
19789;BME280;10054;59.332;18.244;2022-08-01T00:18:31;100780.22;;;15.75;89.73
19789;BME280;10054;59.332;18.244;2022-08-01T00:21:00;100775.98;;;15.73;89.82
19789;BME280;10054;59.332;18.244;2022-08-01T00:23:31;100773.22;;;15.69;89.86
19789;BME280;10054;59.332;18.244;2022-08-01T00:26:00;100768.02;;;15.67;89.95
19789;BME280;10054;59.332;18.244;2022-08-01T00:28:29;100776.13;;;15.66;89.90
19789;BME280;10054;59.332;18.244;2022-08-01T00:30:58;100773.72;;;15.63;90.12
19789;BME280;10054;59.332;18.244;2022-08-01T00:33:27;100769.49;;;15.60;90.30
19789;BME280;10054;59.332;18.244;2022-08-01T00:35:55;100772.79;;;15.58;90.20
19789;BME280;10054;59.332;18.244;2022-08-01T00:38:24;100770.34;;;15.55;90.42
19789;BME280;10054;59.332;18.244;2022-08-01T00:40:54;100775.55;;;15.51;90.59
19789;BME280;10054;59.332;18.244;2022-08-01T00:43:22;100767.82;;;15.48;90.84
19789;BME280;10054;59.332;18.244;2022-08-01T00:45:51;100769.27;;;15.47;91.10
19789;BME280;10054;59.332;18.244;2022-08-01T00:48:20;100767.70;;;15.44;91.27
19789;BME280;10054;59.332;18.244;2022-08-01T00:50:50;100763.48;;;15.41;91.35
19789;BME280;10054;59.332;18.244;2022-08-01T00:53:22;100763.24;;;15.39;91.44
19789;BME280;10054;59.332;18.244;2022-08-01T00:55:51;100759.50;;;15.36;91.46
19789;BME280;10054;59.332;18.244;2022-08-01T00:58:20;100760.11;;;15.34;91.35
19789;BME280;10054;59.332;18.244;2022-08-01T01:00:49;100756.84;;;15.30;91.18
19789;BME280;10054;59.332;18.244;2022-08-01T01:03:18;100757.58;;;15.27;91.31
19789;BME280;10054;59.332;18.244;2022-08-01T01:08:29;100748.89;;;15.19;91.96
19789;BME280;10054;59.332;18.244;2022-08-01T01:10:58;100753.59;;;15.16;92.11
19789;BME280;10054;59.332;18.244;2022-08-01T01:13:43;100749.86;;;15.12;92.60
19789;BME280;10054;59.332;18.244;2022-08-01T01:16:09;100752.39;;;15.08;93.16
19789;BME280;10054;59.332;18.244;2022-08-01T01:18:55;100754.33;;;15.06;93.45
19789;BME280;10054;59.332;18.244;2022-08-01T01:21:47;100752.88;;;15.02;93.29
19789;BME280;10054;59.332;18.244;2022-08-01T01:24:25;100747.80;;;14.99;93.09
19789;BME280;10054;59.332;18.244;2022-08-01T01:27:18;100750.70;;;14.96;92.89
19789;BME280;10054;59.332;18.244;2022-08-01T01:29:54;100749.25;;;14.92;92.94
19789;BME280;10054;59.332;18.244;2022-08-01T01:32:43;100749.25;;;14.87;93.20
19789;BME280;10054;59.332;18.244;2022-08-01T01:35:45;100744.58;;;14.85;93.71
19789;BME280;10054;59.332;18.244;2022-08-01T01:37:46;100741.67;;;14.82;93.84
19789;BME280;10054;59.332;18.244;2022-08-01T01:40:17;100743.24;;;14.79;93.66
19789;BME280;10054;59.332;18.244;2022-08-01T01:42:48;100743.97;;;14.75;93.91
19789;BME280;10054;59.332;18.244;2022-08-01T01:45:18;100741.06;;;14.73;94.23
19789;BME280;10054;59.332;18.244;2022-08-01T01:47:48;100740.09;;;14.68;94.75
19789;BME280;10054;59.332;18.244;2022-08-01T01:50:19;100736.23;;;14.67;95.06
19789;BME280;10054;59.332;18.244;2022-08-01T01:52:50;100732.84;;;14.65;95.07
19789;BME280;10054;59.332;18.244;2022-08-01T01:55:20;100729.95;;;14.62;95.21
19789;BME280;10054;59.332;18.244;2022-08-01T01:57:52;100728.26;;;14.61;95.23
19789;BME280;10054;59.332;18.244;2022-08-01T02:00:22;100722.59;;;14.60;95.09
19789;BME280;10054;59.332;18.244;2022-08-01T02:02:53;100726.80;;;14.57;94.99
19789;BME280;10054;59.332;18.244;2022-08-01T02:05:23;100719.80;;;14.56;94.99
19789;BME280;10054;59.332;18.244;2022-08-01T02:07:53;100718.59;;;14.55;95.04
19789;BME280;10054;59.332;18.244;2022-08-01T02:10:24;100717.75;;;14.54;95.26
19789;BME280;10054;59.332;18.244;2022-08-01T02:12:53;100722.58;;;14.55;95.46
19789;BME280;10054;59.332;18.244;2022-08-01T02:15:23;100718.11;;;14.55;95.52
19789;BME280;10054;59.332;18.244;2022-08-01T02:17:53;100717.27;;;14.55;95.48
19789;BME280;10054;59.332;18.244;2022-08-01T02:20:24;100709.30;;;14.55;95.47
19789;BME280;10054;59.332;18.244;2022-08-01T02:22:57;100714.49;;;14.56;95.57
19789;BME280;10054;59.332;18.244;2022-08-01T02:25:32;100715.22;;;14.58;95.63
19789;BME280;10054;59.332;18.244;2022-08-01T02:28:15;100711.23;;;14.58;95.64
19789;BME280;10054;59.332;18.244;2022-08-01T02:30:41;100712.92;;;14.59;95.51
19789;BME280;10054;59.332;18.244;2022-08-01T02:33:16;100716.80;;;14.61;95.66
19789;BME280;10054;59.332;18.244;2022-08-01T02:35:56;100711.84;;;14.62;95.94
19789;BME280;10054;59.332;18.244;2022-08-01T02:38:22;100710.40;;;14.63;96.18
19789;BME280;10054;59.332;18.244;2022-08-01T02:40:52;100709.80;;;14.65;96.26
19789;BME280;10054;59.332;18.244;2022-08-01T02:43:26;100709.55;;;14.68;96.35
19789;BME280;10054;59.332;18.244;2022-08-01T02:45:58;100707.63;;;14.70;96.41
19789;BME280;10054;59.332;18.244;2022-08-01T02:48:30;100704.25;;;14.74;96.44
19789;BME280;10054;59.332;18.244;2022-08-01T02:51:01;100699.17;;;14.76;96.47
19789;BME280;10054;59.332;18.244;2022-08-01T02:53:33;100699.78;;;14.80;96.70
19789;BME280;10054;59.332;18.244;2022-08-01T02:56:08;100700.27;;;14.85;96.85
19789;BME280;10054;59.332;18.244;2022-08-01T02:58:40;100701.80;;;14.88;96.87
19789;BME280;10054;59.332;18.244;2022-08-01T03:01:10;100702.64;;;14.94;96.93
19789;BME280;10054;59.332;18.244;2022-08-01T03:03:41;100702.16;;;15.00;97.69
19789;BME280;10054;59.332;18.244;2022-08-01T03:06:11;100697.69;;;15.06;97.83
19789;BME280;10054;59.332;18.244;2022-08-01T03:08:41;100696.23;;;15.13;98.23
19789;BME280;10054;59.332;18.244;2022-08-01T03:11:12;100693.44;;;15.20;98.79
19789;BME280;10054;59.332;18.244;2022-08-01T03:13:44;100691.12;;;15.32;100.00
19789;BME280;10054;59.332;18.244;2022-08-01T03:16:14;100691.22;;;15.42;100.00
19789;BME280;10054;59.332;18.244;2022-08-01T03:18:44;100690.07;;;15.61;100.00
19789;BME280;10054;59.332;18.244;2022-08-01T03:21:14;100688.73;;;15.93;100.00
19789;BME280;10054;59.332;18.244;2022-08-01T03:23:45;100680.23;;;16.35;100.00
19789;BME280;10054;59.332;18.244;2022-08-01T03:26:16;100674.84;;;16.62;100.00
19789;BME280;10054;59.332;18.244;2022-08-01T03:28:47;100678.95;;;16.81;100.00
19789;BME280;10054;59.332;18.244;2022-08-01T03:31:18;100679.26;;;17.22;100.00
19789;BME280;10054;59.332;18.244;2022-08-01T03:33:47;100673.66;;;17.69;100.00
19789;BME280;10054;59.332;18.244;2022-08-01T03:36:16;100675.02;;;18.02;98.99
19789;BME280;10054;59.332;18.244;2022-08-01T03:38:47;100676.80;;;18.31;98.93
19789;BME280;10054;59.332;18.244;2022-08-01T03:41:19;100675.27;;;18.52;97.17
19789;BME280;10054;59.332;18.244;2022-08-01T03:43:52;100674.75;;;18.62;96.58
19789;BME280;10054;59.332;18.244;2022-08-01T03:46:27;100672.97;;;18.66;96.56
19789;BME280;10054;59.332;18.244;2022-08-01T03:49:00;100672.13;;;18.66;96.13
19789;BME280;10054;59.332;18.244;2022-08-01T03:51:30;100667.66;;;18.57;96.33
19789;BME280;10054;59.332;18.244;2022-08-01T03:54:01;100676.34;;;18.45;97.21
19789;BME280;10054;59.332;18.244;2022-08-01T03:56:32;100673.64;;;18.31;98.19
19789;BME280;10054;59.332;18.244;2022-08-01T03:59:03;100670.93;;;18.18;99.19
19789;BME280;10054;59.332;18.244;2022-08-01T04:01:32;100673.27;;;18.07;99.54
19789;BME280;10054;59.332;18.244;2022-08-01T04:04:04;100678.41;;;17.95;100.00
19789;BME280;10054;59.332;18.244;2022-08-01T04:06:33;100678.27;;;17.87;100.00
19789;BME280;10054;59.332;18.244;2022-08-01T04:09:03;100675.35;;;17.80;100.00
19789;BME280;10054;59.332;18.244;2022-08-01T04:11:33;100680.73;;;17.84;100.00
19789;BME280;10054;59.332;18.244;2022-08-01T04:14:03;100677.07;;;17.95;100.00
19789;BME280;10054;59.332;18.244;2022-08-01T04:16:32;100678.19;;;18.02;100.00
19789;BME280;10054;59.332;18.244;2022-08-01T04:19:02;100682.40;;;18.04;100.00
19789;BME280;10054;59.332;18.244;2022-08-01T04:21:32;100681.20;;;18.03;100.00
19789;BME280;10054;59.332;18.244;2022-08-01T04:26:53;100671.07;;;18.16;100.00
19789;BME280;10054;59.332;18.244;2022-08-01T04:29:23;100669.98;;;18.32;100.00
19789;BME280;10054;59.332;18.244;2022-08-01T04:31:54;100672.14;;;18.43;100.00
19789;BME280;10054;59.332;18.244;2022-08-01T04:34:25;100676.14;;;18.43;100.00
19789;BME280;10054;59.332;18.244;2022-08-01T04:36:56;100672.92;;;18.39;100.00
19789;BME280;10054;59.332;18.244;2022-08-01T04:39:28;100669.96;;;18.42;100.00
19789;BME280;10054;59.332;18.244;2022-08-01T04:41:59;100663.34;;;18.46;100.00
19789;BME280;10054;59.332;18.244;2022-08-01T04:44:30;100666.91;;;18.51;100.00
19789;BME280;10054;59.332;18.244;2022-08-01T04:47:01;100660.17;;;18.47;100.00
19789;BME280;10054;59.332;18.244;2022-08-01T04:49:34;100666.36;;;18.47;100.00
19789;BME280;10054;59.332;18.244;2022-08-01T04:52:03;100663.82;;;18.69;100.00
19789;BME280;10054;59.332;18.244;2022-08-01T04:54:39;100659.38;;;19.15;100.00
19789;BME280;10054;59.332;18.244;2022-08-01T04:57:08;100660.91;;;19.66;100.00
19789;BME280;10054;59.332;18.244;2022-08-01T04:59:38;100653.09;;;20.17;97.27
19789;BME280;10054;59.332;18.244;2022-08-01T05:02:14;100652.52;;;20.53;93.94
19789;BME280;10054;59.332;18.244;2022-08-01T05:04:44;100653.64;;;20.84;93.22
19789;BME280;10054;59.332;18.244;2022-08-01T05:07:13;100645.59;;;21.22;91.08
19789;BME280;10054;59.332;18.244;2022-08-01T05:09:43;100652.86;;;21.50;88.88
19789;BME280;10054;59.332;18.244;2022-08-01T05:12:14;100644.63;;;21.76;87.80
19789;BME280;10054;59.332;18.244;2022-08-01T05:14:43;100644.63;;;21.96;85.68
19789;BME280;10054;59.332;18.244;2022-08-01T05:17:13;100645.48;;;22.17;82.75
19789;BME280;10054;59.332;18.244;2022-08-01T05:19:43;100645.64;;;22.24;83.65
19789;BME280;10054;59.332;18.244;2022-08-01T05:22:12;100637.20;;;22.31;82.47
19789;BME280;10054;59.332;18.244;2022-08-01T05:24:41;100639.50;;;22.50;81.51
19789;BME280;10054;59.332;18.244;2022-08-01T05:27:10;100638.95;;;22.63;79.73
19789;BME280;10054;59.332;18.244;2022-08-01T05:29:39;100637.42;;;22.69;77.46
19789;BME280;10054;59.332;18.244;2022-08-01T05:32:08;100638.09;;;22.79;77.27
19789;BME280;10054;59.332;18.244;2022-08-01T05:34:38;100634.55;;;22.74;75.75
19789;BME280;10054;59.332;18.244;2022-08-01T05:37:07;100627.70;;;22.63;74.61
19789;BME280;10054;59.332;18.244;2022-08-01T05:39:36;100630.07;;;22.58;75.04
19789;BME280;10054;59.332;18.244;2022-08-01T05:42:05;100629.94;;;22.48;74.94
19789;BME280;10054;59.332;18.244;2022-08-01T05:44:34;100625.78;;;22.29;73.20
19789;BME280;10054;59.332;18.244;2022-08-01T05:47:03;100627.19;;;22.09;75.02
19789;BME280;10054;59.332;18.244;2022-08-01T05:49:32;100625.84;;;21.80;75.71
19789;BME280;10054;59.332;18.244;2022-08-01T05:52:01;100624.48;;;21.60;76.57
19789;BME280;10054;59.332;18.244;2022-08-01T05:54:30;100622.98;;;21.41;76.73
19789;BME280;10054;59.332;18.244;2022-08-01T05:56:59;100623.98;;;21.32;77.49
19789;BME280;10054;59.332;18.244;2022-08-01T05:59:29;100624.83;;;21.37;77.69
19789;BME280;10054;59.332;18.244;2022-08-01T06:01:58;100628.00;;;21.56;76.61
19789;BME280;10054;59.332;18.244;2022-08-01T06:04:27;100628.02;;;21.77;74.44
19789;BME280;10054;59.332;18.244;2022-08-01T06:06:56;100618.28;;;21.92;73.37
19789;BME280;10054;59.332;18.244;2022-08-01T06:09:25;100619.64;;;22.04;72.57
19789;BME280;10054;59.332;18.244;2022-08-01T06:11:54;100617.63;;;22.02;73.01
19789;BME280;10054;59.332;18.244;2022-08-01T06:14:29;100616.09;;;21.91;72.82
19789;BME280;10054;59.332;18.244;2022-08-01T06:16:59;100615.42;;;21.81;73.75
19789;BME280;10054;59.332;18.244;2022-08-01T06:19:28;100615.77;;;21.70;74.13
19789;BME280;10054;59.332;18.244;2022-08-01T06:21:57;100610.23;;;21.63;75.00
19789;BME280;10054;59.332;18.244;2022-08-01T06:24:26;100610.89;;;21.61;75.81
19789;BME280;10054;59.332;18.244;2022-08-01T06:26:55;100605.70;;;21.64;75.16
19789;BME280;10054;59.332;18.244;2022-08-01T06:29:24;100606.53;;;21.56;71.57
19789;BME280;10054;59.332;18.244;2022-08-01T06:31:53;100608.88;;;21.59;72.79
19789;BME280;10054;59.332;18.244;2022-08-01T06:34:22;100602.50;;;21.60;73.26
19789;BME280;10054;59.332;18.244;2022-08-01T06:36:51;100603.37;;;21.53;73.97
19789;BME280;10054;59.332;18.244;2022-08-01T06:39:20;100607.06;;;21.48;74.85
19789;BME280;10054;59.332;18.244;2022-08-01T06:41:49;100606.72;;;21.43;74.12
19789;BME280;10054;59.332;18.244;2022-08-01T06:44:18;100607.38;;;21.37;73.00
19789;BME280;10054;59.332;18.244;2022-08-01T06:46:47;100603.18;;;21.30;70.87
19789;BME280;10054;59.332;18.244;2022-08-01T06:49:15;100604.17;;;21.25;69.69
19789;BME280;10054;59.332;18.244;2022-08-01T06:51:44;100602.67;;;21.26;72.17
19789;BME280;10054;59.332;18.244;2022-08-01T06:54:13;100601.34;;;21.30;73.55
19789;BME280;10054;59.332;18.244;2022-08-01T06:56:43;100602.85;;;21.37;74.39
19789;BME280;10054;59.332;18.244;2022-08-01T06:59:13;100604.20;;;21.41;74.57
19789;BME280;10054;59.332;18.244;2022-08-01T07:01:42;100598.84;;;21.49;73.23
19789;BME280;10054;59.332;18.244;2022-08-01T07:04:11;100598.81;;;21.61;72.67
19789;BME280;10054;59.332;18.244;2022-08-01T07:06:40;100599.15;;;21.79;71.44
19789;BME280;10054;59.332;18.244;2022-08-01T07:09:08;100596.47;;;22.03;71.60
19789;BME280;10054;59.332;18.244;2022-08-01T07:11:37;100599.06;;;22.32;69.13
19789;BME280;10054;59.332;18.244;2022-08-01T07:14:06;100598.15;;;22.55;67.63
19789;BME280;10054;59.332;18.244;2022-08-01T07:16:35;100599.14;;;22.58;63.46
19789;BME280;10054;59.332;18.244;2022-08-01T07:19:04;100604.71;;;22.53;65.33
19789;BME280;10054;59.332;18.244;2022-08-01T07:21:33;100599.00;;;22.52;64.50
19789;BME280;10054;59.332;18.244;2022-08-01T07:24:02;100604.39;;;22.48;65.02
19789;BME280;10054;59.332;18.244;2022-08-01T07:26:32;100608.41;;;22.52;64.74
19789;BME280;10054;59.332;18.244;2022-08-01T07:29:01;100602.22;;;22.43;64.43
19789;BME280;10054;59.332;18.244;2022-08-01T07:31:30;100597.84;;;22.46;64.95
19789;BME280;10054;59.332;18.244;2022-08-01T07:33:59;100601.36;;;22.51;64.75
19789;BME280;10054;59.332;18.244;2022-08-01T07:36:27;100599.14;;;22.58;63.91
19789;BME280;10054;59.332;18.244;2022-08-01T07:38:56;100595.92;;;22.67;64.22
19789;BME280;10054;59.332;18.244;2022-08-01T07:41:25;100595.04;;;22.83;64.33
19789;BME280;10054;59.332;18.244;2022-08-01T07:43:55;100592.77;;;22.99;63.49
19789;BME280;10054;59.332;18.244;2022-08-01T07:46:24;100587.92;;;23.17;62.14
19789;BME280;10054;59.332;18.244;2022-08-01T07:48:54;100599.80;;;23.26;62.11
19789;BME280;10054;59.332;18.244;2022-08-01T07:51:23;100584.48;;;23.27;61.79
19789;BME280;10054;59.332;18.244;2022-08-01T07:53:52;100597.67;;;23.18;60.74
19789;BME280;10054;59.332;18.244;2022-08-01T07:56:21;100588.61;;;23.15;61.62
19789;BME280;10054;59.332;18.244;2022-08-01T07:58:51;100583.58;;;23.12;61.53
19789;BME280;10054;59.332;18.244;2022-08-01T08:01:20;100586.78;;;23.11;60.33
19789;BME280;10054;59.332;18.244;2022-08-01T08:03:49;100590.11;;;23.17;59.94
19789;BME280;10054;59.332;18.244;2022-08-01T08:06:18;100582.48;;;23.25;59.30
19789;BME280;10054;59.332;18.244;2022-08-01T08:08:46;100580.42;;;23.31;58.71
19789;BME280;10054;59.332;18.244;2022-08-01T08:11:15;100583.41;;;23.36;58.07
19789;BME280;10054;59.332;18.244;2022-08-01T08:13:44;100575.99;;;23.38;58.41
19789;BME280;10054;59.332;18.244;2022-08-01T08:16:14;100568.66;;;23.28;59.08
19789;BME280;10054;59.332;18.244;2022-08-01T08:18:43;100569.83;;;23.30;59.68
19789;BME280;10054;59.332;18.244;2022-08-01T08:21:12;100571.98;;;23.34;60.26
19789;BME280;10054;59.332;18.244;2022-08-01T08:23:40;100571.12;;;23.38;60.64
19789;BME280;10054;59.332;18.244;2022-08-01T08:26:27;100570.77;;;23.41;61.62
19789;BME280;10054;59.332;18.244;2022-08-01T08:28:56;100563.64;;;23.48;61.02
19789;BME280;10054;59.332;18.244;2022-08-01T08:31:25;100561.93;;;23.51;60.66
19789;BME280;10054;59.332;18.244;2022-08-01T08:33:54;100565.78;;;23.56;61.02
19789;BME280;10054;59.332;18.244;2022-08-01T08:36:23;100567.94;;;23.61;60.58
19789;BME280;10054;59.332;18.244;2022-08-01T08:38:52;100566.30;;;23.75;60.60
19789;BME280;10054;59.332;18.244;2022-08-01T08:41:21;100563.92;;;23.90;59.49
19789;BME280;10054;59.332;18.244;2022-08-01T08:43:50;100564.72;;;23.95;59.20
19789;BME280;10054;59.332;18.244;2022-08-01T08:46:20;100554.84;;;24.06;59.23
19789;BME280;10054;59.332;18.244;2022-08-01T08:48:52;100552.94;;;24.11;58.50
19789;BME280;10054;59.332;18.244;2022-08-01T08:51:22;100553.48;;;24.06;58.88
19789;BME280;10054;59.332;18.244;2022-08-01T08:53:58;100556.88;;;24.04;59.38
19789;BME280;10054;59.332;18.244;2022-08-01T08:56:25;100554.00;;;24.06;59.63
19789;BME280;10054;59.332;18.244;2022-08-01T08:58:53;100547.91;;;24.08;58.89
19789;BME280;10054;59.332;18.244;2022-08-01T09:01:22;100548.52;;;23.99;58.05
19789;BME280;10054;59.332;18.244;2022-08-01T09:03:51;100548.88;;;23.96;58.49
19789;BME280;10054;59.332;18.244;2022-08-01T09:06:20;100547.06;;;23.92;58.20
19789;BME280;10054;59.332;18.244;2022-08-01T09:08:49;100543.62;;;23.84;57.84
19789;BME280;10054;59.332;18.244;2022-08-01T09:11:18;100546.42;;;23.76;57.58
19789;BME280;10054;59.332;18.244;2022-08-01T09:16:43;100545.41;;;23.77;58.26
19789;BME280;10054;59.332;18.244;2022-08-01T09:19:21;100547.80;;;23.86;58.21
19789;BME280;10054;59.332;18.244;2022-08-01T09:22:02;100543.96;;;24.00;57.10
19789;BME280;10054;59.332;18.244;2022-08-01T09:24:34;100537.65;;;24.22;57.43
19789;BME280;10054;59.332;18.244;2022-08-01T09:27:14;100539.39;;;24.34;56.96
19789;BME280;10054;59.332;18.244;2022-08-01T09:29:32;100541.18;;;24.22;57.31
19789;BME280;10054;59.332;18.244;2022-08-01T09:32:04;100541.46;;;24.13;57.09
19789;BME280;10054;59.332;18.244;2022-08-01T09:34:32;100539.78;;;23.97;57.85
19789;BME280;10054;59.332;18.244;2022-08-01T09:37:02;100533.13;;;23.89;58.16
19789;BME280;10054;59.332;18.244;2022-08-01T09:39:35;100536.06;;;23.98;57.33
19789;BME280;10054;59.332;18.244;2022-08-01T09:42:22;100529.52;;;24.11;56.02
19789;BME280;10054;59.332;18.244;2022-08-01T09:44:52;100533.23;;;24.10;56.46
19789;BME280;10054;59.332;18.244;2022-08-01T09:47:21;100533.91;;;24.27;55.79
19789;BME280;10054;59.332;18.244;2022-08-01T09:49:55;100533.58;;;24.41;56.14
19789;BME280;10054;59.332;18.244;2022-08-01T09:52:26;100534.50;;;24.48;56.60
19789;BME280;10054;59.332;18.244;2022-08-01T09:57:28;100532.18;;;24.45;56.58
19789;BME280;10054;59.332;18.244;2022-08-01T09:59:58;100528.09;;;24.34;56.58
19789;BME280;10054;59.332;18.244;2022-08-01T10:02:31;100527.64;;;24.31;56.34
19789;BME280;10054;59.332;18.244;2022-08-01T10:05:02;100532.35;;;24.14;56.97
19789;BME280;10054;59.332;18.244;2022-08-01T10:07:32;100520.50;;;24.04;57.16
19789;BME280;10054;59.332;18.244;2022-08-01T10:10:11;100521.05;;;24.00;57.00
19789;BME280;10054;59.332;18.244;2022-08-01T10:12:41;100518.83;;;24.03;57.25
19789;BME280;10054;59.332;18.244;2022-08-01T10:15:12;100517.62;;;24.06;56.81
19789;BME280;10054;59.332;18.244;2022-08-01T10:17:44;100516.83;;;24.16;57.01
19789;BME280;10054;59.332;18.244;2022-08-01T10:20:12;100517.88;;;24.30;56.51
19789;BME280;10054;59.332;18.244;2022-08-01T10:22:42;100506.48;;;24.38;53.90
19789;BME280;10054;59.332;18.244;2022-08-01T10:25:12;100512.00;;;24.41;54.84
19789;BME280;10054;59.332;18.244;2022-08-01T10:27:44;100513.73;;;24.38;54.80
19789;BME280;10054;59.332;18.244;2022-08-01T10:30:14;100509.48;;;24.24;55.24
19789;BME280;10054;59.332;18.244;2022-08-01T10:32:44;100515.34;;;24.13;55.42
19789;BME280;10054;59.332;18.244;2022-08-01T10:35:15;100515.39;;;24.09;55.88
19789;BME280;10054;59.332;18.244;2022-08-01T10:37:47;100505.40;;;23.99;55.68
19789;BME280;10054;59.332;18.244;2022-08-01T10:40:17;100506.74;;;23.99;56.12
19789;BME280;10054;59.332;18.244;2022-08-01T10:42:46;100502.75;;;23.95;55.90
19789;BME280;10054;59.332;18.244;2022-08-01T10:45:16;100512.69;;;23.95;56.22
19789;BME280;10054;59.332;18.244;2022-08-01T10:53:07;100510.55;;;23.90;56.07
19789;BME280;10054;59.332;18.244;2022-08-01T10:58:38;100505.67;;;23.89;56.07
19789;BME280;10054;59.332;18.244;2022-08-01T11:04:09;100507.20;;;23.88;55.86
19789;BME280;10054;59.332;18.244;2022-08-01T11:06:51;100501.46;;;23.76;55.79
19789;BME280;10054;59.332;18.244;2022-08-01T11:09:27;100507.03;;;23.75;55.66
19789;BME280;10054;59.332;18.244;2022-08-01T11:12:07;100504.73;;;23.82;56.41
19789;BME280;10054;59.332;18.244;2022-08-01T11:17:43;100501.95;;;24.05;55.83
19789;BME280;10054;59.332;18.244;2022-08-01T11:20:26;100497.45;;;24.16;55.72
19789;BME280;10054;59.332;18.244;2022-08-01T11:30:56;100492.83;;;24.61;55.33
19789;BME280;10054;59.332;18.244;2022-08-01T11:36:16;100491.91;;;24.54;55.11
19789;BME280;10054;59.332;18.244;2022-08-01T11:41:24;100495.53;;;24.50;55.17
19789;BME280;10054;59.332;18.244;2022-08-01T11:44:01;100492.56;;;24.56;55.40
19789;BME280;10054;59.332;18.244;2022-08-01T11:46:52;100497.00;;;24.64;55.17
19789;BME280;10054;59.332;18.244;2022-08-01T11:55:08;100483.50;;;24.53;54.70
19789;BME280;10054;59.332;18.244;2022-08-01T11:57:38;100493.27;;;24.43;55.08
19789;BME280;10054;59.332;18.244;2022-08-01T12:00:15;100492.38;;;24.47;55.61
19789;BME280;10054;59.332;18.244;2022-08-01T12:02:58;100490.11;;;24.40;55.56
19789;BME280;10054;59.332;18.244;2022-08-01T12:05:28;100491.56;;;24.32;55.53
19789;BME280;10054;59.332;18.244;2022-08-01T12:07:58;100495.08;;;24.17;55.07
19789;BME280;10054;59.332;18.244;2022-08-01T12:10:29;100491.08;;;24.13;55.48
19789;BME280;10054;59.332;18.244;2022-08-01T12:13:06;100493.88;;;24.05;55.89
19789;BME280;10054;59.332;18.244;2022-08-01T12:15:37;100499.45;;;24.04;56.13
19789;BME280;10054;59.332;18.244;2022-08-01T12:18:06;100504.42;;;23.96;56.93
19789;BME280;10054;59.332;18.244;2022-08-01T12:20:38;100506.36;;;23.87;57.70
19789;BME280;10054;59.332;18.244;2022-08-01T12:23:09;100513.08;;;23.77;58.04
19789;BME280;10054;59.332;18.244;2022-08-01T12:25:40;100507.77;;;23.69;58.74
19789;BME280;10054;59.332;18.244;2022-08-01T12:28:11;100511.37;;;23.61;59.44
19789;BME280;10054;59.332;18.244;2022-08-01T12:30:47;100507.89;;;23.56;59.57
19789;BME280;10054;59.332;18.244;2022-08-01T12:33:18;100500.03;;;23.47;60.19
19789;BME280;10054;59.332;18.244;2022-08-01T12:35:48;100504.40;;;23.48;60.17
19789;BME280;10054;59.332;18.244;2022-08-01T12:38:21;100507.59;;;23.47;60.66
19789;BME280;10054;59.332;18.244;2022-08-01T12:40:52;100505.92;;;23.46;60.86
19789;BME280;10054;59.332;18.244;2022-08-01T12:43:23;100504.07;;;23.47;61.29
19789;BME280;10054;59.332;18.244;2022-08-01T12:45:56;100505.30;;;23.40;61.72
19789;BME280;10054;59.332;18.244;2022-08-01T12:48:26;100501.19;;;23.30;61.67
19789;BME280;10054;59.332;18.244;2022-08-01T12:50:56;100509.84;;;23.21;61.90
19789;BME280;10054;59.332;18.244;2022-08-01T12:53:27;100502.84;;;23.12;62.63
19789;BME280;10054;59.332;18.244;2022-08-01T12:55:57;100498.69;;;23.05;63.10
19789;BME280;10054;59.332;18.244;2022-08-01T12:58:30;100497.41;;;23.01;63.33
19789;BME280;10054;59.332;18.244;2022-08-01T13:01:12;100496.09;;;22.97;63.37
19789;BME280;10054;59.332;18.244;2022-08-01T13:03:37;100501.37;;;22.86;63.89
19789;BME280;10054;59.332;18.244;2022-08-01T13:06:14;100490.66;;;22.74;64.30
19789;BME280;10054;59.332;18.244;2022-08-01T13:08:43;100489.83;;;22.74;64.35
19789;BME280;10054;59.332;18.244;2022-08-01T13:11:13;100482.97;;;22.67;64.76
19789;BME280;10054;59.332;18.244;2022-08-01T13:13:48;100490.07;;;22.60;65.20
19789;BME280;10054;59.332;18.244;2022-08-01T13:16:19;100489.77;;;22.55;65.44
19789;BME280;10054;59.332;18.244;2022-08-01T13:18:55;100487.25;;;22.53;64.97
19789;BME280;10054;59.332;18.244;2022-08-01T13:21:30;100488.68;;;22.68;65.66
19789;BME280;10054;59.332;18.244;2022-08-01T13:24:12;100482.67;;;22.93;64.90
19789;BME280;10054;59.332;18.244;2022-08-01T13:26:50;100479.67;;;23.07;64.64
19789;BME280;10054;59.332;18.244;2022-08-01T13:29:42;100482.53;;;23.28;64.03
19789;BME280;10054;59.332;18.244;2022-08-01T13:31:57;100475.47;;;23.46;63.17
19789;BME280;10054;59.332;18.244;2022-08-01T13:34:34;100483.28;;;23.59;61.87
19789;BME280;10054;59.332;18.244;2022-08-01T13:37:03;100478.98;;;23.69;59.11
19789;BME280;10054;59.332;18.244;2022-08-01T13:39:34;100479.52;;;23.79;59.09
19789;BME280;10054;59.332;18.244;2022-08-01T13:42:13;100478.35;;;23.78;61.19